Time;durP1;ratioP1;P1;durP2;ratioP2;P2;SDS_P1;SDS_P2;PMS_P1;PMS_P2;Temp;Humidity;BMP_temperature;BMP_pressure;BME280_temperature;BME280_humidity;BME280_pressure;Samples;Min_cycle;Max_cycle;Signal;HPM_P1;HPM_P2
2022/04/16 00:01:34;;;;;;;;;;;13.50;99.90;;;;;;5093216;28;19919;-72
2022/04/16 00:04:00;;;;;;;;;;;13.40;99.90;;;;;;5111903;28;19911;-72
2022/04/16 00:06:26;;;;;;;;;;;13.40;99.90;;;;;;5111897;28;20353;-73
2022/04/16 00:08:51;;;;;;;;;;;13.40;99.90;;;;;;5111302;28;19924;-72
2022/04/16 00:11:17;;;;;;;;;;;13.30;99.90;;;;;;5111529;28;19912;-73
2022/04/16 00:13:42;;;;;;;;;;;13.30;99.90;;;;;;5093077;28;19912;-73
2022/04/16 00:16:09;;;;;;;;;;;13.20;99.90;;;;;;5111491;28;19919;-72
2022/04/16 00:18:34;;;;;;;;;;;13.20;99.90;;;;;;5093093;28;20410;-72
2022/04/16 00:21:04;;;;;;;;;;;13.10;99.90;;;;;;5111503;28;20007;-72
2022/04/16 00:23:30;;;;;;;;;;;13.10;99.90;;;;;;5111304;28;19995;-73
2022/04/16 00:25:56;;;;;;;;;;;13.10;99.90;;;;;;5111290;28;20540;-72
2022/04/16 00:28:22;;;;;;;;;;;13.10;99.90;;;;;;5111153;28;19916;-72
2022/04/16 00:30:47;;;;;;;;;;;13.00;99.90;;;;;;5111169;28;19969;-72
2022/04/16 00:33:13;;;;;;;;;;;13.00;99.90;;;;;;5111273;28;19918;-72
2022/04/16 00:35:40;;;;;;;;;;;12.90;99.90;;;;;;5111181;28;19908;-73
2022/04/16 00:38:05;;;;;;;;;;;13.00;99.90;;;;;;5111803;28;19912;-72
2022/04/16 00:40:31;;;;;;;;;;;12.80;99.90;;;;;;5111073;28;20329;-72
2022/04/16 00:42:57;;;;;;;;;;;12.80;99.90;;;;;;5111661;28;20325;-72
2022/04/16 00:45:22;;;;;;;;;;;12.80;99.90;;;;;;5111127;28;19911;-73
2022/04/16 00:47:48;;;;;;;;;;;12.80;99.90;;;;;;5112635;28;20291;-73
2022/04/16 00:50:13;;;;;;;;;;;12.80;99.90;;;;;;5114796;28;19915;-73
2022/04/16 00:52:40;;;;;;;;;;;12.80;99.90;;;;;;5115175;28;20370;-73
2022/04/16 00:55:08;;;;;;;;;;;12.70;99.90;;;;;;5114666;28;20385;-72
2022/04/16 00:57:35;;;;;;;;;;;12.70;99.90;;;;;;5115110;28;19919;-72
2022/04/16 01:00:02;;;;;;;;;;;12.60;99.90;;;;;;5096189;28;19923;-72
2022/04/16 01:02:27;;;;;;;;;;;12.60;99.90;;;;;;5096102;28;19973;-73
2022/04/16 01:04:53;;;;;;;;;;;12.50;99.90;;;;;;5114437;28;19916;-73
2022/04/16 01:07:23;;;;;;;;;;;12.50;99.90;;;;;;5114750;28;19923;-73
2022/04/16 01:09:49;;;;;;;;;;;12.40;99.90;;;;;;5096111;28;19915;-73
2022/04/16 01:12:14;;;;;;;;;;;12.40;99.90;;;;;;5114822;28;19916;-73
2022/04/16 01:14:40;;;;;;;;;;;12.40;99.90;;;;;;5095792;28;20379;-73
2022/04/16 01:17:05;;;;;;;;;;;12.40;99.90;;;;;;5114509;28;20348;-73
2022/04/16 01:19:31;;;;;;;;;;;12.40;99.90;;;;;;5114186;28;19916;-72
2022/04/16 01:21:58;;;;;;;;;;;12.40;99.90;;;;;;5095798;28;19916;-73
2022/04/16 01:24:23;;;;;;;;;;;12.30;99.90;;;;;;5114073;28;19912;-73
2022/04/16 01:26:49;;;;;;;;;;;12.20;99.90;;;;;;5114370;28;19916;-73
2022/04/16 01:29:15;;;;;;;;;;;12.20;99.90;;;;;;5114062;28;19921;-73
2022/04/16 01:31:40;;;;;;;;;;;12.20;99.90;;;;;;5114097;28;19919;-73
2022/04/16 01:34:06;;;;;;;;;;;12.20;99.90;;;;;;5095406;28;20283;-73
2022/04/16 01:36:34;;;;;;;;;;;12.10;99.90;;;;;;5085493;28;19912;-73
2022/04/16 01:39:01;;;;;;;;;;;12.10;99.90;;;;;;5113824;28;20287;-73
2022/04/16 01:41:29;;;;;;;;;;;12.10;99.90;;;;;;5113807;28;19965;-73
2022/04/16 01:43:56;;;;;;;;;;;12.00;99.90;;;;;;5095339;28;20199;-73
2022/04/16 01:46:21;;;;;;;;;;;12.00;99.90;;;;;;5113728;28;19926;-73
2022/04/16 01:48:49;;;;;;;;;;;12.00;99.90;;;;;;5113671;28;19911;-73
2022/04/16 01:51:17;;;;;;;;;;;12.00;99.90;;;;;;5095181;28;20002;-72
2022/04/16 01:53:44;;;;;;;;;;;12.00;99.90;;;;;;5113569;28;19916;-73
2022/04/16 01:56:10;;;;;;;;;;;11.90;99.90;;;;;;5113433;28;20418;-73
2022/04/16 01:58:38;;;;;;;;;;;11.90;99.90;;;;;;5113133;28;20003;-73
2022/04/16 02:01:04;;;;;;;;;;;11.80;99.90;;;;;;5113055;28;19919;-73
2022/04/16 02:03:30;;;;;;;;;;;11.70;99.90;;;;;;5095105;28;20456;-73
2022/04/16 02:05:56;;;;;;;;;;;11.70;99.90;;;;;;5113294;28;19911;-73
2022/04/16 02:08:21;;;;;;;;;;;11.60;99.90;;;;;;5094881;28;20359;-73
2022/04/16 02:10:47;;;;;;;;;;;11.70;99.90;;;;;;5094709;28;20394;-73
2022/04/16 02:13:12;;;;;;;;;;;11.70;99.90;;;;;;5113735;28;19912;-73
2022/04/16 02:15:40;;;;;;;;;;;12.70;99.90;;;;;;5112773;28;20411;-74
2022/04/16 02:18:06;;;;;;;;;;;11.80;99.90;;;;;;5113766;28;19963;-72
2022/04/16 02:20:31;;;;;;;;;;;11.70;99.90;;;;;;5094659;28;20370;-73
2022/04/16 02:22:57;;;;;;;;;;;11.70;99.90;;;;;;5094820;28;19919;-73
2022/04/16 02:25:24;;;;;;;;;;;11.70;99.90;;;;;;5094686;28;19911;-73
2022/04/16 02:27:50;;;;;;;;;;;11.70;99.90;;;;;;5094369;28;20303;-73
2022/04/16 02:30:16;;;;;;;;;;;11.70;99.90;;;;;;5112703;28;19912;-73
2022/04/16 02:32:43;;;;;;;;;;;11.60;99.90;;;;;;5113190;28;19947;-74
2022/04/16 02:35:09;;;;;;;;;;;11.60;99.90;;;;;;5112727;28;19941;-73
2022/04/16 02:37:35;;;;;;;;;;;11.70;99.90;;;;;;5113204;28;19912;-73
2022/04/16 02:40:02;;;;;;;;;;;11.70;99.90;;;;;;5112801;28;19923;-73
2022/04/16 02:42:27;;;;;;;;;;;11.70;99.90;;;;;;5112832;28;19920;-73
2022/04/16 02:47:37;;;;;;;;;;;11.60;99.90;;;;;;5112588;28;19926;-73
2022/04/16 02:50:03;;;;;;;;;;;11.50;99.90;;;;;;5094614;28;19912;-73
2022/04/16 02:52:31;;;;;;;;;;;11.50;99.90;;;;;;5094191;28;19990;-73
2022/04/16 02:54:57;;;;;;;;;;;11.50;99.90;;;;;;5094262;28;19951;-73
2022/04/16 02:57:22;;;;;;;;;;;11.50;99.90;;;;;;5094357;28;19912;-73
2022/04/16 02:59:48;;;;;;;;;;;11.50;99.90;;;;;;5094084;28;19912;-72
2022/04/16 03:02:13;;;;;;;;;;;11.50;99.90;;;;;;5112529;28;20304;-73
2022/04/16 03:04:39;;;;;;;;;;;11.40;99.90;;;;;;5112332;28;19912;-72
2022/04/16 03:07:04;;;;;;;;;;;11.40;99.90;;;;;;5112442;28;19912;-72
2022/04/16 03:09:30;;;;;;;;;;;11.40;99.90;;;;;;5093766;28;19926;-73
2022/04/16 03:11:56;;;;;;;;;;;11.40;99.90;;;;;;5111349;28;20278;-73
2022/04/16 03:19:50;;;;;;;;;;;11.30;99.90;;;;;;5112727;28;20006;-72
2022/04/16 03:22:18;;;;;;;;;;;11.20;99.90;;;;;;5093570;28;20370;-72
2022/04/16 03:24:44;;;;;;;;;;;11.30;99.90;;;;;;5093611;28;19916;-73
2022/04/16 03:27:09;;;;;;;;;;;11.30;99.90;;;;;;5112029;28;19908;-73
2022/04/16 03:29:35;;;;;;;;;;;11.20;99.90;;;;;;5112123;28;19922;-72
2022/04/16 03:32:00;;;;;;;;;;;11.20;99.90;;;;;;5112015;28;20467;-73
2022/04/16 03:34:26;;;;;;;;;;;11.10;99.90;;;;;;5111900;28;19999;-73
2022/04/16 03:36:51;;;;;;;;;;;11.20;99.90;;;;;;5111989;28;20355;-72
2022/04/16 03:39:17;;;;;;;;;;;11.70;99.90;;;;;;5093669;28;19951;-73
2022/04/16 03:41:42;;;;;;;;;;;11.30;99.90;;;;;;5093654;28;20430;-72
2022/04/16 03:44:08;;;;;;;;;;;11.10;99.90;;;;;;5111888;28;19923;-73
2022/04/16 03:46:33;;;;;;;;;;;11.10;99.90;;;;;;5111919;28;19915;-72
2022/04/16 03:48:59;;;;;;;;;;;11.10;99.90;;;;;;5112002;28;19920;-73
2022/04/16 03:51:26;;;;;;;;;;;11.10;99.90;;;;;;5093492;28;19998;-73
2022/04/16 03:53:52;;;;;;;;;;;11.10;99.90;;;;;;5093415;28;19963;-72
2022/04/16 04:01:46;;;;;;;;;;;11.20;99.90;;;;;;5112029;28;20342;-72
2022/04/16 04:04:11;;;;;;;;;;;11.20;99.90;;;;;;5111701;28;19916;-72
2022/04/16 04:06:37;;;;;;;;;;;11.10;99.90;;;;;;5111747;28;19918;-72
2022/04/16 04:09:02;;;;;;;;;;;11.20;99.90;;;;;;5111600;28;19923;-72
2022/04/16 04:11:28;;;;;;;;;;;11.20;99.90;;;;;;5093300;28;20319;-72
2022/04/16 04:13:53;;;;;;;;;;;11.20;99.90;;;;;;5111486;28;19935;-72
2022/04/16 04:16:19;;;;;;;;;;;11.10;99.90;;;;;;5093186;28;19911;-72
2022/04/16 04:18:45;;;;;;;;;;;11.10;99.90;;;;;;5111302;28;19912;-72
2022/04/16 04:21:11;;;;;;;;;;;12.50;99.90;;;;;;5111197;28;19923;-72
2022/04/16 04:23:36;;;;;;;;;;;11.20;99.90;;;;;;5114280;28;19919;-72
2022/04/16 04:26:03;;;;;;;;;;;11.10;99.90;;;;;;5096855;28;19916;-72
2022/04/16 04:28:29;;;;;;;;;;;11.10;99.90;;;;;;5115263;28;19947;-71
2022/04/16 04:30:54;;;;;;;;;;;11.10;99.90;;;;;;5096899;28;19946;-72
2022/04/16 04:33:20;;;;;;;;;;;11.10;99.90;;;;;;5115416;28;20275;-72
2022/04/16 04:35:45;;;;;;;;;;;11.20;99.90;;;;;;5115174;28;19912;-72
2022/04/16 04:38:11;;;;;;;;;;;11.20;99.90;;;;;;5115131;28;19916;-72
2022/04/16 04:40:36;;;;;;;;;;;11.20;99.90;;;;;;5096692;28;19919;-72
2022/04/16 04:43:02;;;;;;;;;;;11.20;99.90;;;;;;5115453;28;19912;-72
2022/04/16 04:45:30;;;;;;;;;;;11.20;99.90;;;;;;5114851;28;20325;-73
2022/04/16 04:47:56;;;;;;;;;;;11.20;99.90;;;;;;5115250;28;19918;-72
2022/04/16 04:50:21;;;;;;;;;;;11.20;99.90;;;;;;5114827;28;19920;-72
2022/04/16 04:52:47;;;;;;;;;;;11.20;99.90;;;;;;5115122;28;20355;-73
2022/04/16 04:55:13;;;;;;;;;;;11.20;99.90;;;;;;5115015;28;19949;-72
2022/04/16 04:57:39;;;;;;;;;;;11.20;99.90;;;;;;5115140;28;19960;-73
2022/04/16 05:00:06;;;;;;;;;;;11.20;99.90;;;;;;5114752;28;19980;-73
2022/04/16 05:02:41;;;;;;;;;;;11.30;99.90;;;;;;5096328;28;19923;-72
2022/04/16 05:05:07;;;;;;;;;;;11.30;99.90;;;;;;5096256;28;19965;-72
2022/04/16 05:07:32;;;;;;;;;;;11.40;99.90;;;;;;5114406;28;20333;-72
2022/04/16 05:09:58;;;;;;;;;;;11.50;99.90;;;;;;5114467;28;20007;-72
2022/04/16 05:12:23;;;;;;;;;;;11.60;99.90;;;;;;5096143;28;20347;-72
2022/04/16 05:14:49;;;;;;;;;;;12.30;99.90;;;;;;5095970;28;19965;-71
2022/04/16 05:17:14;;;;;;;;;;;11.80;99.90;;;;;;5114637;28;20307;-73
2022/04/16 05:19:40;;;;;;;;;;;12.00;99.90;;;;;;5096079;28;19919;-72
2022/04/16 05:22:05;;;;;;;;;;;12.20;99.90;;;;;;5114461;28;19923;-73
2022/04/16 05:24:30;;;;;;;;;;;12.30;99.90;;;;;;5114182;28;19926;-71
2022/04/16 05:26:56;;;;;;;;;;;12.30;99.90;;;;;;5114381;28;19908;-72
2022/04/16 05:29:23;;;;;;;;;;;12.30;99.90;;;;;;5095939;28;20035;-72
2022/04/16 05:31:49;;;;;;;;;;;12.30;99.90;;;;;;5095613;28;19908;-73
2022/04/16 05:34:20;;;;;;;;;;;12.50;99.90;;;;;;5113023;28;19916;-72
2022/04/16 05:36:47;;;;;;;;;;;12.50;99.90;;;;;;5114076;28;20732;-73
2022/04/16 05:39:12;;;;;;;;;;;12.40;99.90;;;;;;5113818;28;20381;-72
2022/04/16 05:41:38;;;;;;;;;;;12.50;99.90;;;;;;5114081;28;19911;-72
2022/04/16 05:44:04;;;;;;;;;;;12.50;99.90;;;;;;5114033;28;20260;-72
2022/04/16 05:46:30;;;;;;;;;;;12.40;99.90;;;;;;5113969;28;19908;-72
2022/04/16 05:48:55;;;;;;;;;;;12.40;99.90;;;;;;5113864;28;19916;-72
2022/04/16 05:51:21;;;;;;;;;;;12.60;99.90;;;;;;5114055;28;19912;-72
2022/04/16 05:53:48;;;;;;;;;;;12.70;99.90;;;;;;5113731;28;19927;-72
2022/04/16 05:56:13;;;;;;;;;;;12.90;99.90;;;;;;5113806;28;19922;-73
2022/04/16 05:58:39;;;;;;;;;;;13.10;99.90;;;;;;5095308;28;20025;-72
2022/04/16 06:01:06;;;;;;;;;;;13.30;99.90;;;;;;5113493;28;19960;-73
2022/04/16 06:03:33;;;;;;;;;;;13.50;99.90;;;;;;5113447;28;19920;-73
2022/04/16 06:06:00;;;;;;;;;;;13.60;99.90;;;;;;5094976;28;19908;-73
2022/04/16 06:08:26;;;;;;;;;;;13.90;99.90;;;;;;5113282;28;19924;-73
2022/04/16 06:10:51;;;;;;;;;;;13.50;99.90;;;;;;5113263;28;20127;-73
2022/04/16 06:13:17;;;;;;;;;;;13.60;99.90;;;;;;5113229;28;19931;-73
2022/04/16 06:15:42;;;;;;;;;;;13.60;99.90;;;;;;5113453;28;19908;-74
2022/04/16 06:18:09;;;;;;;;;;;13.60;99.90;;;;;;5113552;28;19915;-73
2022/04/16 06:20:35;;;;;;;;;;;13.50;99.90;;;;;;5112978;28;20460;-73
2022/04/16 06:23:01;;;;;;;;;;;13.60;99.90;;;;;;5112911;28;19911;-72
2022/04/16 06:25:26;;;;;;;;;;;13.80;99.90;;;;;;5112860;28;20423;-72
2022/04/16 06:27:51;;;;;;;;;;;13.90;99.90;;;;;;5094763;28;19980;-72
2022/04/16 06:30:17;;;;;;;;;;;14.10;99.90;;;;;;5112968;28;19919;-73
2022/04/16 06:32:43;;;;;;;;;;;14.30;99.90;;;;;;5113138;28;19916;-72
2022/04/16 06:35:08;;;;;;;;;;;14.40;99.90;;;;;;5112988;28;19922;-73
2022/04/16 06:37:34;;;;;;;;;;;14.30;99.90;;;;;;5094466;28;20367;-73
2022/04/16 06:40:00;;;;;;;;;;;14.20;99.90;;;;;;5112446;28;20379;-72
2022/04/16 06:42:26;;;;;;;;;;;14.30;99.90;;;;;;5094196;28;19976;-72
2022/04/16 06:44:51;;;;;;;;;;;14.30;99.90;;;;;;5093918;28;19919;-73
2022/04/16 06:47:17;;;;;;;;;;;14.10;99.90;;;;;;5094437;28;19915;-73
2022/04/16 06:49:42;;;;;;;;;;;13.90;99.90;;;;;;5112238;28;20279;-73
2022/04/16 06:52:08;;;;;;;;;;;13.80;99.90;;;;;;5112662;28;19916;-72
2022/04/16 06:54:33;;;;;;;;;;;13.70;99.90;;;;;;5094076;28;19927;-72
2022/04/16 06:56:59;;;;;;;;;;;13.50;99.90;;;;;;5112358;28;20425;-72
2022/04/16 06:59:24;;;;;;;;;;;13.30;99.90;;;;;;5094046;28;19919;-72
2022/04/16 07:01:50;;;;;;;;;;;13.20;99.90;;;;;;5093999;28;19996;-72
2022/04/16 07:04:15;;;;;;;;;;;13.20;99.90;;;;;;5112170;28;19911;-73
2022/04/16 07:06:42;;;;;;;;;;;13.10;99.90;;;;;;5112370;28;20019;-73
2022/04/16 07:09:08;;;;;;;;;;;13.00;99.90;;;;;;5112170;28;19927;-73
2022/04/16 07:11:33;;;;;;;;;;;12.80;99.90;;;;;;5093786;28;20370;-73
2022/04/16 07:13:59;;;;;;;;;;;12.90;99.90;;;;;;5093878;28;19915;-72
2022/04/16 07:16:24;;;;;;;;;;;13.00;99.90;;;;;;5112043;28;20369;-73
2022/04/16 07:18:50;;;;;;;;;;;13.20;99.90;;;;;;5112173;28;19931;-73
2022/04/16 07:21:15;;;;;;;;;;;13.50;99.90;;;;;;5093633;28;19915;-73
2022/04/16 07:23:41;;;;;;;;;;;13.60;99.90;;;;;;5093734;28;19923;-73
2022/04/16 07:26:06;;;;;;;;;;;13.70;99.90;;;;;;5111543;28;19920;-73
2022/04/16 07:28:32;;;;;;;;;;;13.80;99.90;;;;;;5093677;28;19912;-73
2022/04/16 07:30:57;;;;;;;;;;;13.90;99.90;;;;;;5111786;28;19915;-73
2022/04/16 07:33:27;;;;;;;;;;;14.10;99.90;;;;;;5111934;28;19968;-72
2022/04/16 07:35:52;;;;;;;;;;;14.30;99.90;;;;;;5093171;28;19907;-72
2022/04/16 07:38:18;;;;;;;;;;;14.50;99.90;;;;;;5111844;28;19919;-72
2022/04/16 07:40:43;;;;;;;;;;;14.50;99.90;;;;;;5093201;28;19918;-72
2022/04/16 07:43:09;;;;;;;;;;;14.40;99.90;;;;;;5093698;28;19918;-72
2022/04/16 07:45:34;;;;;;;;;;;14.10;99.90;;;;;;5111800;28;19939;-72
2022/04/16 07:48:00;;;;;;;;;;;14.20;99.90;;;;;;5112281;28;20007;-73
2022/04/16 07:50:25;;;;;;;;;;;14.20;99.90;;;;;;5111641;28;19919;-73
2022/04/16 07:52:51;;;;;;;;;;;14.30;99.90;;;;;;5112203;28;19922;-72
2022/04/16 07:55:16;;;;;;;;;;;14.30;99.90;;;;;;5093176;28;20390;-73
2022/04/16 07:57:42;;;;;;;;;;;14.20;99.90;;;;;;5113103;28;20010;-72
2022/04/16 08:00:09;;;;;;;;;;;14.00;99.90;;;;;;5115441;28;19912;-72
2022/04/16 08:02:34;;;;;;;;;;;13.90;99.90;;;;;;5116030;28;20270;-73
2022/04/16 08:05:00;;;;;;;;;;;13.80;99.90;;;;;;5115560;28;19912;-73
2022/04/16 08:07:25;;;;;;;;;;;13.80;99.90;;;;;;5115613;28;19943;-73
2022/04/16 08:09:51;;;;;;;;;;;13.70;99.90;;;;;;5097347;28;20443;-74
2022/04/16 08:12:16;;;;;;;;;;;13.70;99.90;;;;;;5115328;28;19941;-72
2022/04/16 08:14:42;;;;;;;;;;;13.70;99.90;;;;;;5115506;28;19915;-72
2022/04/16 08:17:07;;;;;;;;;;;13.60;99.90;;;;;;5115728;28;20002;-73
2022/04/16 08:19:33;;;;;;;;;;;13.60;99.90;;;;;;5115432;28;19911;-73
2022/04/16 08:21:58;;;;;;;;;;;13.50;99.90;;;;;;5114858;28;19979;-72
2022/04/16 08:26:56;;;;;;;;;;;13.30;99.90;;;;;;5115486;28;19939;-74
2022/04/16 08:29:22;;;;;;;;;;;13.20;99.90;;;;;;5115168;28;20320;-74
2022/04/16 08:31:48;;;;;;;;;;;13.10;99.90;;;;;;5115189;28;19911;-74
2022/04/16 08:34:14;;;;;;;;;;;13.10;99.90;;;;;;5115148;28;19919;-74
2022/04/16 08:36:39;;;;;;;;;;;13.00;99.90;;;;;;5096524;28;19923;-73
2022/04/16 08:39:04;;;;;;;;;;;13.10;99.90;;;;;;5114943;28;20014;-73
2022/04/16 08:41:30;;;;;;;;;;;13.50;99.90;;;;;;5096694;28;20282;-74
2022/04/16 08:43:56;;;;;;;;;;;13.30;99.90;;;;;;5115042;28;20411;-72
2022/04/16 08:46:22;;;;;;;;;;;13.60;99.90;;;;;;5096560;28;19926;-71
2022/04/16 08:48:48;;;;;;;;;;;13.90;99.90;;;;;;5114929;28;19961;-72
2022/04/16 08:51:15;;;;;;;;;;;14.20;99.90;;;;;;5115032;28;20355;-71
2022/04/16 08:53:41;;;;;;;;;;;14.40;99.90;;;;;;5114799;28;19912;-72
2022/04/16 08:56:06;;;;;;;;;;;14.60;99.90;;;;;;5114715;28;19968;-73
2022/04/16 08:58:32;;;;;;;;;;;14.50;99.90;;;;;;5114688;28;19919;-72
2022/04/16 09:00:59;;;;;;;;;;;14.70;99.90;;;;;;5096161;28;19915;-72
2022/04/16 09:03:42;;;;;;;;;;;15.00;99.90;;;;;;5114641;28;19912;-71
2022/04/16 09:06:08;;;;;;;;;;;15.50;99.90;;;;;;5114442;28;19919;-73
2022/04/16 09:08:34;;;;;;;;;;;15.90;99.90;;;;;;5114321;28;20367;-72
2022/04/16 09:11:07;;;;;;;;;;;15.80;99.90;;;;;;5114429;28;19908;-72
2022/04/16 09:13:33;;;;;;;;;;;16.00;99.90;;;;;;5114359;28;19912;-73
2022/04/16 09:16:07;;;;;;;;;;;15.60;99.90;;;;;;5114322;28;20328;-73
2022/04/16 09:18:52;;;;;;;;;;;14.90;99.90;;;;;;5114580;28;19918;-71
2022/04/16 09:21:18;;;;;;;;;;;14.10;99.90;;;;;;5095721;28;20355;-72
2022/04/16 09:23:47;;;;;;;;;;;13.50;99.90;;;;;;5113953;28;19949;-72
2022/04/16 09:26:23;;;;;;;;;;;12.80;99.90;;;;;;5113920;28;20318;-72
2022/04/16 09:28:49;;;;;;;;;;;12.10;99.90;;;;;;5114066;28;19919;-72
2022/04/16 09:31:14;;;;;;;;;;;11.60;99.90;;;;;;5095648;28;20275;-72
2022/04/16 09:33:41;;;;;;;;;;;11.20;99.90;;;;;;5114015;28;19916;-72
2022/04/16 09:36:06;;;;;;;;;;;10.90;99.90;;;;;;5113893;28;20415;-73
2022/04/16 09:38:35;;;;;;;;;;;10.80;99.90;;;;;;5095394;28;19947;-72
2022/04/16 09:41:05;;;;;;;;;;;10.50;99.90;;;;;;5095389;28;19915;-73
2022/04/16 09:43:33;;;;;;;;;;;10.30;99.90;;;;;;5113827;28;20365;-73
2022/04/16 09:46:06;;;;;;;;;;;10.10;99.90;;;;;;5113652;28;19953;-73
2022/04/16 09:48:32;;;;;;;;;;;10.00;99.90;;;;;;5113514;28;20024;-73
2022/04/16 09:50:58;;;;;;;;;;;9.90;99.90;;;;;;5095267;28;20441;-72
2022/04/16 09:53:24;;;;;;;;;;;9.80;99.90;;;;;;5113571;28;19943;-71
2022/04/16 09:55:50;;;;;;;;;;;9.60;99.90;;;;;;5095026;28;19969;-72
2022/04/16 09:58:16;;;;;;;;;;;9.60;99.90;;;;;;5113486;28;19912;-72
2022/04/16 10:00:42;;;;;;;;;;;9.50;99.90;;;;;;5094965;28;20390;-72
2022/04/16 10:03:08;;;;;;;;;;;9.50;99.90;;;;;;5113866;28;19967;-72
2022/04/16 10:05:33;;;;;;;;;;;9.40;99.90;;;;;;5113123;28;19912;-73
2022/04/16 10:07:59;;;;;;;;;;;9.30;99.90;;;;;;5094850;28;19927;-73
2022/04/16 10:10:31;;;;;;;;;;;9.10;99.90;;;;;;5094962;28;20328;-73
2022/04/16 10:13:03;;;;;;;;;;;9.00;99.90;;;;;;5113798;28;19916;-74
2022/04/16 10:15:52;;;;;;;;;;;8.90;99.90;;;;;;5095001;28;19946;-73
2022/04/16 10:18:17;;;;;;;;;;;8.80;99.90;;;;;;5113069;28;20332;-73
2022/04/16 10:20:55;;;;;;;;;;;8.90;99.90;;;;;;5094359;28;19962;-73
2022/04/16 10:23:24;;;;;;;;;;;8.80;99.90;;;;;;5113015;28;19923;-73
2022/04/16 10:25:50;;;;;;;;;;;8.80;99.90;;;;;;5112986;28;19908;-73
2022/04/16 10:28:23;;;;;;;;;;;8.80;99.90;;;;;;5112865;28;19912;-73
2022/04/16 10:30:53;;;;;;;;;;;8.80;99.90;;;;;;5112876;28;19957;-73
2022/04/16 10:33:19;;;;;;;;;;;8.80;99.90;;;;;;5112960;28;20364;-73
2022/04/16 10:35:48;;;;;;;;;;;8.70;99.90;;;;;;5112768;28;19912;-73
2022/04/16 10:38:21;;;;;;;;;;;8.80;99.90;;;;;;5112735;28;20295;-73
2022/04/16 10:40:53;;;;;;;;;;;8.80;99.90;;;;;;5094233;28;19908;-73
2022/04/16 10:43:23;;;;;;;;;;;8.80;99.90;;;;;;5112736;28;19961;-72
2022/04/16 10:46:02;;;;;;;;;;;8.80;99.90;;;;;;5112412;28;19908;-74
2022/04/16 10:48:37;;;;;;;;;;;8.80;99.90;;;;;;5094140;28;19918;-72
2022/04/16 10:51:04;;;;;;;;;;;8.70;99.90;;;;;;5094293;28;19951;-73
2022/04/16 10:53:33;;;;;;;;;;;8.70;99.90;;;;;;5112428;28;19912;-73
2022/04/16 10:56:25;;;;;;;;;;;8.70;99.90;;;;;;5094041;28;20413;-73
2022/04/16 10:59:00;;;;;;;;;;;8.70;99.90;;;;;;5108184;28;20412;-73
2022/04/16 11:01:26;;;;;;;;;;;8.50;99.90;;;;;;5093850;28;19965;-72
2022/04/16 11:03:54;;;;;;;;;;;8.50;99.90;;;;;;5112197;28;19939;-72
2022/04/16 11:06:19;;;;;;;;;;;8.30;99.90;;;;;;5093996;28;19943;-72
2022/04/16 11:08:45;;;;;;;;;;;8.30;99.90;;;;;;5111853;28;20340;-72
2022/04/16 11:11:12;;;;;;;;;;;8.30;99.90;;;;;;5112335;28;19965;-72
2022/04/16 11:13:38;;;;;;;;;;;8.20;99.90;;;;;;5112296;28;19990;-73
2022/04/16 11:16:04;;;;;;;;;;;8.10;99.90;;;;;;5112416;28;19998;-73
2022/04/16 11:18:45;;;;;;;;;;;8.10;99.90;;;;;;5112021;28;19958;-73
2022/04/16 11:21:10;;;;;;;;;;;8.10;99.90;;;;;;5112018;28;19916;-72
2022/04/16 11:23:43;;;;;;;;;;;8.10;99.90;;;;;;5111960;28;19975;-73
2022/04/16 11:34:23;;;;;;;;;;;8.10;99.90;;;;;;5111959;28;20325;-72
2022/04/16 11:36:52;;;;;;;;;;;8.10;99.90;;;;;;5111848;28;19912;-73
2022/04/16 11:39:19;;;;;;;;;;;8.20;99.90;;;;;;5093340;28;19966;-73
2022/04/16 11:41:46;;;;;;;;;;;8.20;99.90;;;;;;5111803;28;20221;-72
2022/04/16 11:44:12;;;;;;;;;;;8.20;99.90;;;;;;5112029;28;20174;-72
2022/04/16 11:46:38;;;;;;;;;;;8.30;99.90;;;;;;5111760;28;19991;-72
2022/04/16 11:49:04;;;;;;;;;;;8.20;99.90;;;;;;5111739;28;19916;-72
2022/04/16 11:51:30;;;;;;;;;;;8.20;99.90;;;;;;5093596;28;19969;-73
2022/04/16 11:53:55;;;;;;;;;;;8.20;99.90;;;;;;5111768;28;19923;-72
2022/04/16 11:56:21;;;;;;;;;;;8.30;99.90;;;;;;5093216;28;19915;-72
2022/04/16 11:58:51;;;;;;;;;;;8.10;99.90;;;;;;5111586;28;19920;-73
2022/04/16 12:01:20;;;;;;;;;;;8.10;99.90;;;;;;5093264;28;19916;-71
2022/04/16 12:03:45;;;;;;;;;;;8.10;99.90;;;;;;5111514;28;19916;-72
2022/04/16 12:06:12;;;;;;;;;;;8.10;99.90;;;;;;5111592;28;20010;-72
2022/04/16 12:08:41;;;;;;;;;;;8.10;99.90;;;;;;5111819;28;19993;-73
2022/04/16 12:11:07;;;;;;;;;;;8.10;99.90;;;;;;5111586;28;20328;-71
2022/04/16 12:13:33;;;;;;;;;;;8.10;99.90;;;;;;5093507;28;20448;-72
2022/04/16 12:16:02;;;;;;;;;;;8.10;99.90;;;;;;5111361;28;19959;-72
2022/04/16 12:18:33;;;;;;;;;;;8.10;99.90;;;;;;5111400;28;19916;-71
2022/04/16 12:21:04;;;;;;;;;;;8.10;99.90;;;;;;5111275;28;19915;-72
2022/04/16 12:23:30;;;;;;;;;;;8.10;99.90;;;;;;5093072;28;20012;-72
2022/04/16 12:26:08;;;;;;;;;;;8.10;99.90;;;;;;5111048;28;19935;-72
2022/04/16 12:28:37;;;;;;;;;;;8.10;99.90;;;;;;5092998;28;20398;-72
2022/04/16 12:31:03;;;;;;;;;;;8.10;99.90;;;;;;5111096;28;19915;-72
2022/04/16 12:33:28;;;;;;;;;;;8.20;99.90;;;;;;5111267;28;19920;-72
2022/04/16 12:35:57;;;;;;;;;;;8.20;99.90;;;;;;5111055;28;19915;-72
2022/04/16 12:38:24;;;;;;;;;;;8.10;99.90;;;;;;5093173;28;19999;-72
2022/04/16 12:40:51;;;;;;;;;;;8.00;99.90;;;;;;5111133;28;19964;-72
2022/04/16 12:43:16;;;;;;;;;;;8.00;99.90;;;;;;5112382;28;20312;-73
2022/04/16 12:45:42;;;;;;;;;;;7.90;99.90;;;;;;5096403;28;19962;-72
2022/04/16 12:48:08;;;;;;;;;;;7.90;99.90;;;;;;5115289;28;19908;-73
2022/04/16 12:50:34;;;;;;;;;;;7.80;99.90;;;;;;5096196;28;19922;-73
2022/04/16 12:53:00;;;;;;;;;;;7.80;99.90;;;;;;5115263;28;19908;-73
2022/04/16 12:55:26;;;;;;;;;;;7.90;99.90;;;;;;5115209;28;19916;-72
2022/04/16 12:57:51;;;;;;;;;;;8.00;99.90;;;;;;5096630;28;20375;-73
2022/04/16 13:00:17;;;;;;;;;;;8.20;99.90;;;;;;5096448;28;20287;-73
2022/04/16 13:02:44;;;;;;;;;;;8.10;99.90;;;;;;5115060;28;19969;-73
2022/04/16 13:05:10;;;;;;;;;;;8.10;99.90;;;;;;5114901;28;19941;-73
2022/04/16 13:07:36;;;;;;;;;;;8.00;99.90;;;;;;5114697;28;20319;-72
2022/04/16 13:10:03;;;;;;;;;;;8.00;99.90;;;;;;5114471;28;20413;-73
2022/04/16 13:12:29;;;;;;;;;;;7.80;99.90;;;;;;5114933;28;19912;-73
2022/04/16 13:14:54;;;;;;;;;;;8.40;99.90;;;;;;5095959;28;19955;-72
2022/04/16 13:17:20;;;;;;;;;;;7.60;99.90;;;;;;5114664;28;19955;-72
2022/04/16 13:19:46;;;;;;;;;;;7.60;99.90;;;;;;5114327;28;19911;-73
2022/04/16 13:22:11;;;;;;;;;;;7.60;99.90;;;;;;5096048;28;20222;-73
2022/04/16 13:24:37;;;;;;;;;;;7.60;99.90;;;;;;5114176;28;20386;-72
2022/04/16 13:27:03;;;;;;;;;;;7.60;99.90;;;;;;5114378;28;19916;-73
2022/04/16 13:29:29;;;;;;;;;;;7.70;99.90;;;;;;5095813;28;19918;-73
2022/04/16 13:31:56;;;;;;;;;;;7.70;99.90;;;;;;5095546;28;19912;-73
2022/04/16 13:34:21;;;;;;;;;;;7.80;99.90;;;;;;5114045;28;20363;-73
2022/04/16 13:36:47;;;;;;;;;;;7.70;99.90;;;;;;5095383;28;19934;-73
2022/04/16 13:41:38;;;;;;;;;;;7.60;99.90;;;;;;5095890;28;19919;-73
2022/04/16 13:41:58;;;;;;;;;;;7.60;99.90;;;;;;5113755;28;20300;-73
2022/04/16 13:44:24;;;;;;;;;;;7.60;99.90;;;;;;5095498;28;19923;-73
2022/04/16 13:46:49;;;;;;;;;;;7.60;99.90;;;;;;5113729;28;19918;-73
2022/04/16 13:49:15;;;;;;;;;;;7.50;99.90;;;;;;5113727;28;20521;-72
2022/04/16 13:51:40;;;;;;;;;;;7.60;99.90;;;;;;5113553;28;19911;-72
2022/04/16 13:54:09;;;;;;;;;;;7.50;99.90;;;;;;5095311;28;19973;-73
2022/04/16 13:56:35;;;;;;;;;;;7.40;99.90;;;;;;5094310;28;19916;-72
2022/04/16 13:59:01;;;;;;;;;;;7.40;99.90;;;;;;5113605;28;20006;-72
2022/04/16 14:01:27;;;;;;;;;;;7.40;99.90;;;;;;5113305;28;20006;-72
2022/04/16 14:03:53;;;;;;;;;;;7.30;99.90;;;;;;5113502;28;20017;-73
2022/04/16 14:06:19;;;;;;;;;;;7.30;99.90;;;;;;5113239;28;19947;-72
2022/04/16 14:08:45;;;;;;;;;;;7.30;99.90;;;;;;5094991;28;20301;-72
2022/04/16 14:11:10;;;;;;;;;;;7.20;99.90;;;;;;5094902;28;19912;-73
2022/04/16 14:13:37;;;;;;;;;;;7.20;99.90;;;;;;5113145;28;19968;-73
2022/04/16 14:16:04;;;;;;;;;;;7.20;99.90;;;;;;5094730;28;19914;-73
2022/04/16 14:18:29;;;;;;;;;;;7.20;99.90;;;;;;5094672;28;19969;-73
2022/04/16 14:20:55;;;;;;;;;;;7.20;99.90;;;;;;5112914;28;20268;-73
2022/04/16 14:23:21;;;;;;;;;;;7.20;99.90;;;;;;5112941;28;19911;-72
2022/04/16 14:25:47;;;;;;;;;;;7.10;99.90;;;;;;5094562;28;19982;-73
2022/04/16 14:28:12;;;;;;;;;;;7.00;99.90;;;;;;5112912;28;19950;-73
2022/04/16 14:30:38;;;;;;;;;;;7.00;99.90;;;;;;5094493;28;19915;-73
2022/04/16 14:33:04;;;;;;;;;;;7.00;99.90;;;;;;5113134;28;20104;-72
2022/04/16 14:35:29;;;;;;;;;;;7.00;99.90;;;;;;5094201;28;19916;-73
2022/04/16 14:37:55;;;;;;;;;;;7.00;99.90;;;;;;5113222;28;19980;-73
2022/04/16 14:40:20;;;;;;;;;;;6.90;99.90;;;;;;5112687;28;19918;-72
2022/04/16 14:42:46;;;;;;;;;;;7.00;99.90;;;;;;5112968;28;20015;-73